sensor_id;sensor_type;location;lat;lon;timestamp;P1;durP1;ratioP1;P2;durP2;ratioP2
23088;SDS011;11713;48.506;8.966;2023-12-07T00:00:39;19.27;;;12.50;;
23088;SDS011;11713;48.506;8.966;2023-12-07T00:03:05;21.30;;;12.60;;
23088;SDS011;11713;48.506;8.966;2023-12-07T00:05:33;21.07;;;12.93;;
23088;SDS011;11713;48.506;8.966;2023-12-07T00:07:59;18.60;;;12.63;;
23088;SDS011;11713;48.506;8.966;2023-12-07T00:10:25;20.93;;;12.47;;
23088;SDS011;11713;48.506;8.966;2023-12-07T00:12:51;16.83;;;11.13;;
23088;SDS011;11713;48.506;8.966;2023-12-07T00:15:17;16.97;;;11.50;;
23088;SDS011;11713;48.506;8.966;2023-12-07T00:17:42;19.53;;;13.47;;
23088;SDS011;11713;48.506;8.966;2023-12-07T00:20:08;22.83;;;15.30;;
23088;SDS011;11713;48.506;8.966;2023-12-07T00:22:34;21.50;;;13.90;;
23088;SDS011;11713;48.506;8.966;2023-12-07T00:25:00;18.90;;;12.57;;
23088;SDS011;11713;48.506;8.966;2023-12-07T00:27:27;16.20;;;11.90;;
23088;SDS011;11713;48.506;8.966;2023-12-07T00:29:53;16.60;;;11.33;;
23088;SDS011;11713;48.506;8.966;2023-12-07T00:32:19;16.93;;;11.47;;
23088;SDS011;11713;48.506;8.966;2023-12-07T00:34:44;16.93;;;10.87;;
23088;SDS011;11713;48.506;8.966;2023-12-07T00:37:11;16.60;;;11.57;;
23088;SDS011;11713;48.506;8.966;2023-12-07T00:39:36;17.33;;;11.50;;
23088;SDS011;11713;48.506;8.966;2023-12-07T00:42:02;17.27;;;12.23;;
23088;SDS011;11713;48.506;8.966;2023-12-07T00:44:28;17.87;;;11.90;;
23088;SDS011;11713;48.506;8.966;2023-12-07T00:46:54;16.30;;;11.37;;
23088;SDS011;11713;48.506;8.966;2023-12-07T00:49:20;18.47;;;12.77;;
23088;SDS011;11713;48.506;8.966;2023-12-07T00:51:45;16.53;;;11.60;;
23088;SDS011;11713;48.506;8.966;2023-12-07T00:54:12;16.33;;;11.23;;
23088;SDS011;11713;48.506;8.966;2023-12-07T00:56:38;16.77;;;11.07;;
23088;SDS011;11713;48.506;8.966;2023-12-07T00:59:04;18.57;;;12.27;;
23088;SDS011;11713;48.506;8.966;2023-12-07T01:01:30;16.07;;;11.50;;
23088;SDS011;11713;48.506;8.966;2023-12-07T01:03:56;19.23;;;12.60;;
23088;SDS011;11713;48.506;8.966;2023-12-07T01:06:21;16.87;;;11.57;;
23088;SDS011;11713;48.506;8.966;2023-12-07T01:08:47;15.23;;;10.70;;
23088;SDS011;11713;48.506;8.966;2023-12-07T01:11:13;16.93;;;11.77;;
23088;SDS011;11713;48.506;8.966;2023-12-07T01:13:39;17.70;;;12.00;;
23088;SDS011;11713;48.506;8.966;2023-12-07T01:16:05;18.33;;;11.87;;
23088;SDS011;11713;48.506;8.966;2023-12-07T01:18:31;15.03;;;11.17;;
23088;SDS011;11713;48.506;8.966;2023-12-07T01:20:58;19.50;;;11.50;;
23088;SDS011;11713;48.506;8.966;2023-12-07T01:23:23;16.10;;;10.83;;
23088;SDS011;11713;48.506;8.966;2023-12-07T01:25:49;16.07;;;10.43;;
23088;SDS011;11713;48.506;8.966;2023-12-07T01:28:15;16.93;;;11.00;;
23088;SDS011;11713;48.506;8.966;2023-12-07T01:30:41;16.73;;;10.90;;
23088;SDS011;11713;48.506;8.966;2023-12-07T01:33:07;15.20;;;10.60;;
23088;SDS011;11713;48.506;8.966;2023-12-07T01:35:32;15.77;;;11.27;;
23088;SDS011;11713;48.506;8.966;2023-12-07T01:37:58;17.40;;;10.77;;
23088;SDS011;11713;48.506;8.966;2023-12-07T01:40:24;12.97;;;10.07;;
23088;SDS011;11713;48.506;8.966;2023-12-07T01:42:50;11.93;;;9.30;;
23088;SDS011;11713;48.506;8.966;2023-12-07T01:45:19;14.70;;;10.23;;
23088;SDS011;11713;48.506;8.966;2023-12-07T01:47:46;14.77;;;10.03;;
23088;SDS011;11713;48.506;8.966;2023-12-07T01:50:14;15.50;;;9.63;;
23088;SDS011;11713;48.506;8.966;2023-12-07T01:52:43;12.70;;;9.83;;
23088;SDS011;11713;48.506;8.966;2023-12-07T01:55:10;13.73;;;9.27;;
23088;SDS011;11713;48.506;8.966;2023-12-07T01:57:37;13.40;;;9.77;;
23088;SDS011;11713;48.506;8.966;2023-12-07T02:00:03;13.80;;;9.63;;
23088;SDS011;11713;48.506;8.966;2023-12-07T02:02:30;14.37;;;9.50;;
23088;SDS011;11713;48.506;8.966;2023-12-07T02:04:59;14.03;;;10.40;;
23088;SDS011;11713;48.506;8.966;2023-12-07T02:07:26;13.97;;;10.07;;
23088;SDS011;11713;48.506;8.966;2023-12-07T02:09:52;13.93;;;10.23;;
23088;SDS011;11713;48.506;8.966;2023-12-07T02:12:18;13.37;;;10.17;;
23088;SDS011;11713;48.506;8.966;2023-12-07T02:14:45;15.60;;;10.40;;
23088;SDS011;11713;48.506;8.966;2023-12-07T02:17:17;29.93;;;17.13;;
23088;SDS011;11713;48.506;8.966;2023-12-07T02:22:45;17.53;;;11.47;;
23088;SDS011;11713;48.506;8.966;2023-12-07T02:25:18;14.43;;;10.70;;
23088;SDS011;11713;48.506;8.966;2023-12-07T02:27:47;14.27;;;10.67;;
23088;SDS011;11713;48.506;8.966;2023-12-07T02:30:13;16.57;;;9.93;;
23088;SDS011;11713;48.506;8.966;2023-12-07T02:32:40;14.27;;;9.80;;
23088;SDS011;11713;48.506;8.966;2023-12-07T02:35:09;12.63;;;9.97;;
23088;SDS011;11713;48.506;8.966;2023-12-07T02:37:58;14.20;;;10.27;;
23088;SDS011;11713;48.506;8.966;2023-12-07T02:40:24;16.23;;;10.73;;
23088;SDS011;11713;48.506;8.966;2023-12-07T02:42:55;15.43;;;10.43;;
23088;SDS011;11713;48.506;8.966;2023-12-07T02:45:22;15.27;;;10.77;;
23088;SDS011;11713;48.506;8.966;2023-12-07T02:47:48;15.57;;;10.20;;
23088;SDS011;11713;48.506;8.966;2023-12-07T02:50:13;15.23;;;10.20;;
23088;SDS011;11713;48.506;8.966;2023-12-07T02:52:39;16.03;;;10.37;;
23088;SDS011;11713;48.506;8.966;2023-12-07T02:55:06;14.60;;;9.87;;
23088;SDS011;11713;48.506;8.966;2023-12-07T02:57:32;17.00;;;10.57;;
23088;SDS011;11713;48.506;8.966;2023-12-07T03:00:01;17.30;;;10.83;;
23088;SDS011;11713;48.506;8.966;2023-12-07T03:02:40;16.50;;;10.40;;
23088;SDS011;11713;48.506;8.966;2023-12-07T03:05:07;13.13;;;9.33;;
23088;SDS011;11713;48.506;8.966;2023-12-07T03:07:36;13.47;;;9.17;;
23088;SDS011;11713;48.506;8.966;2023-12-07T03:10:02;13.67;;;9.90;;
23088;SDS011;11713;48.506;8.966;2023-12-07T03:12:28;15.40;;;9.87;;
23088;SDS011;11713;48.506;8.966;2023-12-07T03:14:54;16.20;;;10.63;;
23088;SDS011;11713;48.506;8.966;2023-12-07T03:17:19;15.53;;;10.67;;
23088;SDS011;11713;48.506;8.966;2023-12-07T03:19:46;15.07;;;10.47;;
23088;SDS011;11713;48.506;8.966;2023-12-07T03:22:12;15.10;;;9.77;;
23088;SDS011;11713;48.506;8.966;2023-12-07T03:24:38;13.87;;;10.10;;
23088;SDS011;11713;48.506;8.966;2023-12-07T03:27:05;14.17;;;10.37;;
23088;SDS011;11713;48.506;8.966;2023-12-07T03:29:34;14.23;;;10.07;;
23088;SDS011;11713;48.506;8.966;2023-12-07T03:32:00;14.97;;;10.07;;
23088;SDS011;11713;48.506;8.966;2023-12-07T03:34:25;14.23;;;9.93;;
23088;SDS011;11713;48.506;8.966;2023-12-07T03:36:51;14.83;;;10.30;;
23088;SDS011;11713;48.506;8.966;2023-12-07T03:39:18;17.17;;;11.70;;
23088;SDS011;11713;48.506;8.966;2023-12-07T03:41:46;16.63;;;11.20;;
23088;SDS011;11713;48.506;8.966;2023-12-07T03:44:12;16.00;;;10.63;;
23088;SDS011;11713;48.506;8.966;2023-12-07T03:46:38;17.27;;;11.23;;
23088;SDS011;11713;48.506;8.966;2023-12-07T03:49:04;14.90;;;10.90;;
23088;SDS011;11713;48.506;8.966;2023-12-07T03:51:29;15.23;;;10.37;;
23088;SDS011;11713;48.506;8.966;2023-12-07T03:53:55;15.50;;;10.27;;
23088;SDS011;11713;48.506;8.966;2023-12-07T03:56:24;15.10;;;10.33;;
23088;SDS011;11713;48.506;8.966;2023-12-07T03:58:51;17.27;;;10.80;;
23088;SDS011;11713;48.506;8.966;2023-12-07T04:01:17;13.17;;;9.10;;
23088;SDS011;11713;48.506;8.966;2023-12-07T04:03:43;16.43;;;11.13;;
23088;SDS011;11713;48.506;8.966;2023-12-07T04:06:08;15.33;;;10.63;;
23088;SDS011;11713;48.506;8.966;2023-12-07T04:08:34;13.80;;;9.83;;
23088;SDS011;11713;48.506;8.966;2023-12-07T04:11:00;15.70;;;10.57;;
23088;SDS011;11713;48.506;8.966;2023-12-07T04:13:26;15.17;;;10.20;;
23088;SDS011;11713;48.506;8.966;2023-12-07T04:15:52;13.80;;;10.50;;
23088;SDS011;11713;48.506;8.966;2023-12-07T04:18:17;16.13;;;10.20;;
23088;SDS011;11713;48.506;8.966;2023-12-07T04:20:43;15.23;;;10.13;;
23088;SDS011;11713;48.506;8.966;2023-12-07T04:23:09;15.37;;;9.67;;
23088;SDS011;11713;48.506;8.966;2023-12-07T04:25:35;14.33;;;10.33;;
23088;SDS011;11713;48.506;8.966;2023-12-07T04:28:01;16.37;;;11.20;;
23088;SDS011;11713;48.506;8.966;2023-12-07T04:30:26;15.93;;;11.80;;
23088;SDS011;11713;48.506;8.966;2023-12-07T04:32:52;17.77;;;11.93;;
23088;SDS011;11713;48.506;8.966;2023-12-07T04:35:18;15.57;;;11.17;;
23088;SDS011;11713;48.506;8.966;2023-12-07T04:37:44;15.50;;;10.93;;
23088;SDS011;11713;48.506;8.966;2023-12-07T04:40:10;16.60;;;10.97;;
23088;SDS011;11713;48.506;8.966;2023-12-07T04:42:36;19.03;;;11.07;;
23088;SDS011;11713;48.506;8.966;2023-12-07T04:45:02;15.17;;;11.07;;
23088;SDS011;11713;48.506;8.966;2023-12-07T04:47:28;15.27;;;10.83;;
23088;SDS011;11713;48.506;8.966;2023-12-07T04:49:54;15.13;;;10.73;;
23088;SDS011;11713;48.506;8.966;2023-12-07T04:52:20;17.83;;;10.77;;
23088;SDS011;11713;48.506;8.966;2023-12-07T04:54:46;15.53;;;10.57;;
23088;SDS011;11713;48.506;8.966;2023-12-07T04:57:12;14.60;;;10.37;;
23088;SDS011;11713;48.506;8.966;2023-12-07T04:59:38;14.20;;;10.07;;
23088;SDS011;11713;48.506;8.966;2023-12-07T05:02:04;17.17;;;11.67;;
23088;SDS011;11713;48.506;8.966;2023-12-07T05:04:29;17.97;;;12.03;;
23088;SDS011;11713;48.506;8.966;2023-12-07T05:06:55;19.00;;;11.47;;
23088;SDS011;11713;48.506;8.966;2023-12-07T05:09:21;15.63;;;10.77;;
23088;SDS011;11713;48.506;8.966;2023-12-07T05:11:47;17.83;;;10.97;;
23088;SDS011;11713;48.506;8.966;2023-12-07T05:14:13;16.10;;;10.20;;
23088;SDS011;11713;48.506;8.966;2023-12-07T05:16:38;15.73;;;10.57;;
23088;SDS011;11713;48.506;8.966;2023-12-07T05:19:05;14.03;;;9.70;;
23088;SDS011;11713;48.506;8.966;2023-12-07T05:21:31;16.97;;;10.60;;
23088;SDS011;11713;48.506;8.966;2023-12-07T05:23:57;15.97;;;10.60;;
23088;SDS011;11713;48.506;8.966;2023-12-07T05:26:23;15.43;;;10.70;;
23088;SDS011;11713;48.506;8.966;2023-12-07T05:28:48;15.93;;;10.70;;
23088;SDS011;11713;48.506;8.966;2023-12-07T05:31:15;16.17;;;10.53;;
23088;SDS011;11713;48.506;8.966;2023-12-07T05:33:42;14.87;;;10.33;;
23088;SDS011;11713;48.506;8.966;2023-12-07T05:36:08;15.83;;;10.47;;
23088;SDS011;11713;48.506;8.966;2023-12-07T05:38:34;14.77;;;10.73;;
23088;SDS011;11713;48.506;8.966;2023-12-07T05:41:00;18.43;;;11.97;;
23088;SDS011;11713;48.506;8.966;2023-12-07T05:43:26;19.40;;;11.50;;
23088;SDS011;11713;48.506;8.966;2023-12-07T05:45:51;17.73;;;11.47;;
23088;SDS011;11713;48.506;8.966;2023-12-07T05:48:17;18.03;;;11.50;;
23088;SDS011;11713;48.506;8.966;2023-12-07T05:50:43;16.97;;;10.83;;
23088;SDS011;11713;48.506;8.966;2023-12-07T05:53:09;16.60;;;11.27;;
23088;SDS011;11713;48.506;8.966;2023-12-07T05:55:38;16.53;;;10.50;;
23088;SDS011;11713;48.506;8.966;2023-12-07T05:58:04;18.37;;;11.90;;
23088;SDS011;11713;48.506;8.966;2023-12-07T06:00:30;15.60;;;10.80;;
23088;SDS011;11713;48.506;8.966;2023-12-07T06:02:56;15.03;;;10.93;;
23088;SDS011;11713;48.506;8.966;2023-12-07T06:05:22;14.93;;;10.43;;
23088;SDS011;11713;48.506;8.966;2023-12-07T06:07:48;14.50;;;9.80;;
23088;SDS011;11713;48.506;8.966;2023-12-07T06:10:14;17.13;;;10.20;;
23088;SDS011;11713;48.506;8.966;2023-12-07T06:12:40;15.03;;;9.87;;
23088;SDS011;11713;48.506;8.966;2023-12-07T06:15:06;16.37;;;10.03;;
23088;SDS011;11713;48.506;8.966;2023-12-07T06:17:33;15.80;;;9.93;;
23088;SDS011;11713;48.506;8.966;2023-12-07T06:19:59;13.07;;;9.40;;
23088;SDS011;11713;48.506;8.966;2023-12-07T06:22:27;17.53;;;10.27;;
23088;SDS011;11713;48.506;8.966;2023-12-07T06:24:53;13.87;;;9.97;;
23088;SDS011;11713;48.506;8.966;2023-12-07T06:27:19;16.93;;;9.37;;
23088;SDS011;11713;48.506;8.966;2023-12-07T06:29:45;17.60;;;11.53;;
23088;SDS011;11713;48.506;8.966;2023-12-07T06:32:10;19.73;;;12.73;;
23088;SDS011;11713;48.506;8.966;2023-12-07T06:34:40;20.30;;;13.33;;
23088;SDS011;11713;48.506;8.966;2023-12-07T06:37:07;15.83;;;10.90;;
23088;SDS011;11713;48.506;8.966;2023-12-07T06:39:35;16.57;;;10.77;;
23088;SDS011;11713;48.506;8.966;2023-12-07T06:42:02;17.87;;;12.50;;
23088;SDS011;11713;48.506;8.966;2023-12-07T06:44:28;17.60;;;13.83;;
23088;SDS011;11713;48.506;8.966;2023-12-07T06:46:54;22.23;;;15.47;;
23088;SDS011;11713;48.506;8.966;2023-12-07T06:49:19;21.93;;;15.13;;
23088;SDS011;11713;48.506;8.966;2023-12-07T06:51:45;16.27;;;10.53;;
23088;SDS011;11713;48.506;8.966;2023-12-07T06:54:11;16.23;;;10.50;;
23088;SDS011;11713;48.506;8.966;2023-12-07T06:56:37;18.07;;;11.33;;
23088;SDS011;11713;48.506;8.966;2023-12-07T06:59:03;15.10;;;9.90;;
23088;SDS011;11713;48.506;8.966;2023-12-07T07:01:28;15.73;;;10.23;;
23088;SDS011;11713;48.506;8.966;2023-12-07T07:03:54;15.27;;;9.93;;
23088;SDS011;11713;48.506;8.966;2023-12-07T07:06:21;15.13;;;9.20;;
23088;SDS011;11713;48.506;8.966;2023-12-07T07:08:47;16.07;;;9.87;;
23088;SDS011;11713;48.506;8.966;2023-12-07T07:11:14;14.23;;;9.60;;
23088;SDS011;11713;48.506;8.966;2023-12-07T07:13:40;19.63;;;11.77;;
23088;SDS011;11713;48.506;8.966;2023-12-07T07:16:09;16.87;;;10.67;;
23088;SDS011;11713;48.506;8.966;2023-12-07T07:18:38;18.00;;;10.97;;
23088;SDS011;11713;48.506;8.966;2023-12-07T07:21:05;15.30;;;10.77;;
23088;SDS011;11713;48.506;8.966;2023-12-07T07:23:31;15.30;;;10.63;;
23088;SDS011;11713;48.506;8.966;2023-12-07T07:25:57;15.07;;;10.07;;
23088;SDS011;11713;48.506;8.966;2023-12-07T07:28:23;16.60;;;10.70;;
23088;SDS011;11713;48.506;8.966;2023-12-07T07:30:49;18.33;;;11.60;;
23088;SDS011;11713;48.506;8.966;2023-12-07T07:33:16;26.83;;;11.80;;
23088;SDS011;11713;48.506;8.966;2023-12-07T07:35:42;35.10;;;13.37;;
23088;SDS011;11713;48.506;8.966;2023-12-07T07:38:08;27.27;;;14.73;;
23088;SDS011;11713;48.506;8.966;2023-12-07T07:40:34;28.23;;;15.63;;
23088;SDS011;11713;48.506;8.966;2023-12-07T07:43:01;26.20;;;12.77;;
23088;SDS011;11713;48.506;8.966;2023-12-07T07:45:27;28.47;;;11.40;;
23088;SDS011;11713;48.506;8.966;2023-12-07T07:47:53;36.27;;;14.13;;
23088;SDS011;11713;48.506;8.966;2023-12-07T07:50:19;40.77;;;13.83;;
23088;SDS011;11713;48.506;8.966;2023-12-07T07:52:45;34.50;;;12.30;;
23088;SDS011;11713;48.506;8.966;2023-12-07T07:55:11;19.67;;;11.77;;
23088;SDS011;11713;48.506;8.966;2023-12-07T07:57:37;32.30;;;11.80;;
23088;SDS011;11713;48.506;8.966;2023-12-07T08:00:03;30.90;;;14.10;;
23088;SDS011;11713;48.506;8.966;2023-12-07T08:02:33;24.30;;;13.37;;
23088;SDS011;11713;48.506;8.966;2023-12-07T08:05:01;21.60;;;11.67;;
23088;SDS011;11713;48.506;8.966;2023-12-07T08:07:27;19.60;;;11.10;;
23088;SDS011;11713;48.506;8.966;2023-12-07T08:09:53;34.40;;;13.40;;
23088;SDS011;11713;48.506;8.966;2023-12-07T08:12:19;19.63;;;11.53;;
23088;SDS011;11713;48.506;8.966;2023-12-07T08:14:48;18.27;;;12.00;;
23088;SDS011;11713;48.506;8.966;2023-12-07T08:17:14;18.13;;;11.30;;
23088;SDS011;11713;48.506;8.966;2023-12-07T08:19:41;19.47;;;11.80;;
23088;SDS011;11713;48.506;8.966;2023-12-07T08:22:07;15.23;;;10.27;;
23088;SDS011;11713;48.506;8.966;2023-12-07T08:24:34;26.23;;;10.77;;
23088;SDS011;11713;48.506;8.966;2023-12-07T08:27:03;18.73;;;10.27;;
23088;SDS011;11713;48.506;8.966;2023-12-07T08:29:30;20.70;;;10.73;;
23088;SDS011;11713;48.506;8.966;2023-12-07T08:31:56;22.93;;;9.83;;
23088;SDS011;11713;48.506;8.966;2023-12-07T08:34:22;18.47;;;9.73;;
23088;SDS011;11713;48.506;8.966;2023-12-07T08:36:49;21.33;;;11.77;;
23088;SDS011;11713;48.506;8.966;2023-12-07T08:39:15;18.10;;;13.90;;
23088;SDS011;11713;48.506;8.966;2023-12-07T08:41:41;21.20;;;13.37;;
23088;SDS011;11713;48.506;8.966;2023-12-07T08:44:07;20.87;;;12.60;;
23088;SDS011;11713;48.506;8.966;2023-12-07T08:46:33;17.17;;;10.90;;
23088;SDS011;11713;48.506;8.966;2023-12-07T08:48:59;15.37;;;10.93;;
23088;SDS011;11713;48.506;8.966;2023-12-07T08:51:25;17.93;;;11.40;;
23088;SDS011;11713;48.506;8.966;2023-12-07T08:53:50;15.97;;;10.17;;
23088;SDS011;11713;48.506;8.966;2023-12-07T08:56:17;15.10;;;9.83;;
23088;SDS011;11713;48.506;8.966;2023-12-07T08:58:43;15.50;;;10.60;;
23088;SDS011;11713;48.506;8.966;2023-12-07T09:01:09;16.50;;;10.60;;
23088;SDS011;11713;48.506;8.966;2023-12-07T09:03:36;16.53;;;11.27;;
23088;SDS011;11713;48.506;8.966;2023-12-07T09:06:03;16.30;;;11.23;;
23088;SDS011;11713;48.506;8.966;2023-12-07T09:08:30;15.87;;;10.30;;
23088;SDS011;11713;48.506;8.966;2023-12-07T09:10:56;18.10;;;12.53;;
23088;SDS011;11713;48.506;8.966;2023-12-07T09:13:22;17.77;;;11.67;;
23088;SDS011;11713;48.506;8.966;2023-12-07T09:15:48;15.20;;;10.70;;
23088;SDS011;11713;48.506;8.966;2023-12-07T09:18:13;24.93;;;15.23;;
23088;SDS011;11713;48.506;8.966;2023-12-07T09:20:39;20.10;;;12.67;;
23088;SDS011;11713;48.506;8.966;2023-12-07T09:23:12;16.13;;;10.77;;
23088;SDS011;11713;48.506;8.966;2023-12-07T09:25:38;18.47;;;11.13;;
23088;SDS011;11713;48.506;8.966;2023-12-07T09:28:06;16.70;;;11.60;;
23088;SDS011;11713;48.506;8.966;2023-12-07T09:30:31;22.33;;;12.83;;
23088;SDS011;11713;48.506;8.966;2023-12-07T09:32:59;22.73;;;14.63;;
23088;SDS011;11713;48.506;8.966;2023-12-07T09:35:25;29.03;;;15.27;;
23088;SDS011;11713;48.506;8.966;2023-12-07T09:37:51;35.20;;;14.53;;
23088;SDS011;11713;48.506;8.966;2023-12-07T09:40:17;30.17;;;14.17;;
23088;SDS011;11713;48.506;8.966;2023-12-07T09:42:45;27.83;;;13.57;;
23088;SDS011;11713;48.506;8.966;2023-12-07T09:45:12;18.93;;;12.30;;
23088;SDS011;11713;48.506;8.966;2023-12-07T09:47:39;26.43;;;13.60;;
23088;SDS011;11713;48.506;8.966;2023-12-07T09:50:07;17.00;;;11.90;;
23088;SDS011;11713;48.506;8.966;2023-12-07T09:52:34;19.97;;;12.80;;
23088;SDS011;11713;48.506;8.966;2023-12-07T09:55:04;33.37;;;13.60;;
23088;SDS011;11713;48.506;8.966;2023-12-07T09:57:31;21.03;;;12.30;;
23088;SDS011;11713;48.506;8.966;2023-12-07T09:59:59;28.90;;;15.77;;
23088;SDS011;11713;48.506;8.966;2023-12-07T10:02:25;24.97;;;15.07;;
23088;SDS011;11713;48.506;8.966;2023-12-07T10:05:03;24.27;;;14.63;;
23088;SDS011;11713;48.506;8.966;2023-12-07T10:07:36;24.27;;;14.13;;
23088;SDS011;11713;48.506;8.966;2023-12-07T10:10:04;26.13;;;15.47;;
23088;SDS011;11713;48.506;8.966;2023-12-07T10:12:31;26.90;;;14.80;;
23088;SDS011;11713;48.506;8.966;2023-12-07T10:15:00;24.27;;;15.40;;
23088;SDS011;11713;48.506;8.966;2023-12-07T10:20:13;32.80;;;20.90;;
23088;SDS011;11713;48.506;8.966;2023-12-07T10:22:43;29.60;;;18.37;;
23088;SDS011;11713;48.506;8.966;2023-12-07T10:25:11;24.93;;;16.87;;
23088;SDS011;11713;48.506;8.966;2023-12-07T10:27:40;26.90;;;16.13;;
23088;SDS011;11713;48.506;8.966;2023-12-07T10:30:08;24.10;;;16.13;;
23088;SDS011;11713;48.506;8.966;2023-12-07T10:32:36;24.03;;;15.87;;
23088;SDS011;11713;48.506;8.966;2023-12-07T10:35:04;22.87;;;14.83;;
23088;SDS011;11713;48.506;8.966;2023-12-07T10:37:33;22.70;;;15.10;;
23088;SDS011;11713;48.506;8.966;2023-12-07T10:39:59;23.03;;;14.33;;
23088;SDS011;11713;48.506;8.966;2023-12-07T10:42:25;21.20;;;14.40;;
23088;SDS011;11713;48.506;8.966;2023-12-07T10:44:55;17.63;;;12.30;;
23088;SDS011;11713;48.506;8.966;2023-12-07T10:47:23;18.67;;;12.43;;
23088;SDS011;11713;48.506;8.966;2023-12-07T10:49:51;16.37;;;11.87;;
23088;SDS011;11713;48.506;8.966;2023-12-07T10:52:20;18.37;;;12.53;;
23088;SDS011;11713;48.506;8.966;2023-12-07T10:57:29;15.53;;;10.77;;
23088;SDS011;11713;48.506;8.966;2023-12-07T10:59:57;14.50;;;10.73;;
23088;SDS011;11713;48.506;8.966;2023-12-07T11:02:26;16.70;;;10.90;;
23088;SDS011;11713;48.506;8.966;2023-12-07T11:04:56;17.30;;;10.97;;
23088;SDS011;11713;48.506;8.966;2023-12-07T11:07:23;15.47;;;10.80;;
23088;SDS011;11713;48.506;8.966;2023-12-07T11:10:00;15.37;;;10.33;;
23088;SDS011;11713;48.506;8.966;2023-12-07T11:12:43;12.67;;;9.03;;
23088;SDS011;11713;48.506;8.966;2023-12-07T11:15:14;12.90;;;9.27;;
23088;SDS011;11713;48.506;8.966;2023-12-07T11:17:51;14.47;;;9.70;;
23088;SDS011;11713;48.506;8.966;2023-12-07T11:20:19;14.27;;;9.17;;
23088;SDS011;11713;48.506;8.966;2023-12-07T11:22:46;12.70;;;8.27;;
23088;SDS011;11713;48.506;8.966;2023-12-07T11:25:14;10.10;;;7.57;;
23088;SDS011;11713;48.506;8.966;2023-12-07T11:27:43;8.30;;;6.77;;
23088;SDS011;11713;48.506;8.966;2023-12-07T11:30:13;9.20;;;6.70;;
23088;SDS011;11713;48.506;8.966;2023-12-07T11:32:40;8.17;;;6.53;;
23088;SDS011;11713;48.506;8.966;2023-12-07T11:35:07;10.53;;;6.57;;
23088;SDS011;11713;48.506;8.966;2023-12-07T11:40:36;9.77;;;6.80;;
23088;SDS011;11713;48.506;8.966;2023-12-07T11:46:08;8.97;;;6.80;;
23088;SDS011;11713;48.506;8.966;2023-12-07T11:48:35;11.67;;;8.83;;
23088;SDS011;11713;48.506;8.966;2023-12-07T11:51:07;12.73;;;8.87;;
23088;SDS011;11713;48.506;8.966;2023-12-07T11:53:37;15.13;;;10.10;;
23088;SDS011;11713;48.506;8.966;2023-12-07T11:56:04;11.90;;;8.57;;
23088;SDS011;11713;48.506;8.966;2023-12-07T11:58:32;12.50;;;9.23;;
23088;SDS011;11713;48.506;8.966;2023-12-07T12:00:59;12.40;;;9.10;;
23088;SDS011;11713;48.506;8.966;2023-12-07T12:03:30;13.23;;;9.70;;
23088;SDS011;11713;48.506;8.966;2023-12-07T12:06:01;12.53;;;9.07;;
23088;SDS011;11713;48.506;8.966;2023-12-07T12:08:29;10.53;;;8.40;;
23088;SDS011;11713;48.506;8.966;2023-12-07T12:10:55;12.07;;;8.63;;
23088;SDS011;11713;48.506;8.966;2023-12-07T12:13:33;14.37;;;9.77;;
23088;SDS011;11713;48.506;8.966;2023-12-07T12:16:00;11.90;;;8.40;;
23088;SDS011;11713;48.506;8.966;2023-12-07T12:18:26;10.30;;;7.90;;
23088;SDS011;11713;48.506;8.966;2023-12-07T12:20:53;9.67;;;7.23;;
23088;SDS011;11713;48.506;8.966;2023-12-07T12:23:19;10.47;;;7.87;;
23088;SDS011;11713;48.506;8.966;2023-12-07T12:25:46;8.80;;;7.30;;
23088;SDS011;11713;48.506;8.966;2023-12-07T12:28:17;8.97;;;7.23;;
23088;SDS011;11713;48.506;8.966;2023-12-07T12:30:47;10.73;;;7.53;;
23088;SDS011;11713;48.506;8.966;2023-12-07T12:33:13;10.80;;;8.33;;
23088;SDS011;11713;48.506;8.966;2023-12-07T12:35:40;12.43;;;8.77;;
23088;SDS011;11713;48.506;8.966;2023-12-07T12:38:10;10.50;;;8.40;;
23088;SDS011;11713;48.506;8.966;2023-12-07T12:40:37;10.97;;;9.27;;
23088;SDS011;11713;48.506;8.966;2023-12-07T12:43:03;13.67;;;9.30;;
23088;SDS011;11713;48.506;8.966;2023-12-07T12:45:32;11.60;;;8.70;;
23088;SDS011;11713;48.506;8.966;2023-12-07T12:47:59;10.83;;;8.43;;
23088;SDS011;11713;48.506;8.966;2023-12-07T12:50:39;8.47;;;6.87;;
23088;SDS011;11713;48.506;8.966;2023-12-07T12:53:09;8.70;;;6.93;;
23088;SDS011;11713;48.506;8.966;2023-12-07T12:55:36;8.20;;;6.50;;
23088;SDS011;11713;48.506;8.966;2023-12-07T12:58:03;8.17;;;5.83;;
23088;SDS011;11713;48.506;8.966;2023-12-07T13:00:32;6.50;;;5.60;;
23088;SDS011;11713;48.506;8.966;2023-12-07T13:02:59;8.37;;;6.00;;
23088;SDS011;11713;48.506;8.966;2023-12-07T13:05:26;7.83;;;6.20;;
23088;SDS011;11713;48.506;8.966;2023-12-07T13:07:52;7.17;;;6.10;;
23088;SDS011;11713;48.506;8.966;2023-12-07T13:10:18;8.87;;;6.33;;
23088;SDS011;11713;48.506;8.966;2023-12-07T13:12:44;7.03;;;5.87;;
23088;SDS011;11713;48.506;8.966;2023-12-07T13:15:10;9.30;;;5.93;;
23088;SDS011;11713;48.506;8.966;2023-12-07T13:17:38;9.27;;;6.57;;
23088;SDS011;11713;48.506;8.966;2023-12-07T13:20:07;8.80;;;6.50;;
23088;SDS011;11713;48.506;8.966;2023-12-07T13:22:40;6.93;;;6.00;;
23088;SDS011;11713;48.506;8.966;2023-12-07T13:25:09;8.57;;;5.70;;
23088;SDS011;11713;48.506;8.966;2023-12-07T13:27:37;8.63;;;5.90;;
23088;SDS011;11713;48.506;8.966;2023-12-07T13:30:03;7.77;;;6.07;;
23088;SDS011;11713;48.506;8.966;2023-12-07T13:32:35;8.53;;;6.33;;
23088;SDS011;11713;48.506;8.966;2023-12-07T13:35:04;9.27;;;7.00;;
23088;SDS011;11713;48.506;8.966;2023-12-07T13:37:31;9.57;;;7.00;;
23088;SDS011;11713;48.506;8.966;2023-12-07T13:40:01;9.93;;;6.50;;
23088;SDS011;11713;48.506;8.966;2023-12-07T13:42:29;9.97;;;7.60;;
23088;SDS011;11713;48.506;8.966;2023-12-07T13:44:56;9.43;;;6.90;;
23088;SDS011;11713;48.506;8.966;2023-12-07T13:47:23;10.57;;;7.00;;
23088;SDS011;11713;48.506;8.966;2023-12-07T13:49:57;13.97;;;8.43;;
23088;SDS011;11713;48.506;8.966;2023-12-07T13:52:24;11.87;;;7.77;;
23088;SDS011;11713;48.506;8.966;2023-12-07T13:54:50;10.93;;;6.53;;
23088;SDS011;11713;48.506;8.966;2023-12-07T13:57:17;6.50;;;5.37;;
23088;SDS011;11713;48.506;8.966;2023-12-07T13:59:44;10.20;;;5.70;;
23088;SDS011;11713;48.506;8.966;2023-12-07T14:02:10;9.03;;;5.67;;
23088;SDS011;11713;48.506;8.966;2023-12-07T14:04:36;8.13;;;5.40;;
23088;SDS011;11713;48.506;8.966;2023-12-07T14:07:14;5.77;;;4.80;;
23088;SDS011;11713;48.506;8.966;2023-12-07T14:09:42;9.73;;;5.03;;
23088;SDS011;11713;48.506;8.966;2023-12-07T14:12:10;7.03;;;4.63;;
23088;SDS011;11713;48.506;8.966;2023-12-07T14:14:41;8.57;;;4.47;;
23088;SDS011;11713;48.506;8.966;2023-12-07T14:17:09;6.60;;;5.13;;
23088;SDS011;11713;48.506;8.966;2023-12-07T14:19:36;6.93;;;5.37;;
23088;SDS011;11713;48.506;8.966;2023-12-07T14:22:04;8.23;;;5.10;;
23088;SDS011;11713;48.506;8.966;2023-12-07T14:24:30;7.57;;;4.07;;
23088;SDS011;11713;48.506;8.966;2023-12-07T14:26:58;5.57;;;4.47;;
23088;SDS011;11713;48.506;8.966;2023-12-07T14:29:24;6.07;;;3.87;;
23088;SDS011;11713;48.506;8.966;2023-12-07T14:31:51;7.20;;;3.97;;
23088;SDS011;11713;48.506;8.966;2023-12-07T14:34:18;10.17;;;4.80;;
23088;SDS011;11713;48.506;8.966;2023-12-07T14:36:45;8.67;;;5.83;;
23088;SDS011;11713;48.506;8.966;2023-12-07T14:39:12;12.33;;;5.80;;
23088;SDS011;11713;48.506;8.966;2023-12-07T14:41:45;8.57;;;6.33;;